createdAt,value
2023-07-23T00:00:38.990Z,70.00
2023-07-23T00:03:10.715Z,69.68
2023-07-23T00:05:37.492Z,69.86
2023-07-23T00:08:04.549Z,69.80
2023-07-23T00:10:31.273Z,70.34
2023-07-23T00:12:58.076Z,70.32
2023-07-23T00:15:25.172Z,70.89
2023-07-23T00:17:51.974Z,71.02
2023-07-23T00:20:18.887Z,71.06
2023-07-23T00:22:45.717Z,71.19
2023-07-23T00:25:12.692Z,72.19
2023-07-23T00:27:39.817Z,71.41
2023-07-23T00:30:07.325Z,72.47
2023-07-23T00:32:34.331Z,72.57
2023-07-23T00:35:01.123Z,72.73
2023-07-23T00:37:27.912Z,73.12
2023-07-23T00:39:54.678Z,73.29
2023-07-23T00:42:21.762Z,73.64
2023-07-23T00:44:48.497Z,73.10
2023-07-23T00:47:15.227Z,73.29
2023-07-23T00:49:42.037Z,73.84
2023-07-23T00:52:08.997Z,73.19
2023-07-23T00:54:36.067Z,74.46
2023-07-23T00:57:04.464Z,74.06
2023-07-23T00:59:31.259Z,74.17
2023-07-23T01:01:58.417Z,74.62
2023-07-23T01:04:26.811Z,74.75
2023-07-23T01:06:56.261Z,73.36
2023-07-23T01:09:24.254Z,74.50
2023-07-23T01:11:52.976Z,74.00
2023-07-23T01:14:19.962Z,73.85
2023-07-23T01:16:46.762Z,74.75
2023-07-23T01:19:13.541Z,74.84
2023-07-23T01:21:40.353Z,75.02
2023-07-23T01:24:07.350Z,75.79
2023-07-23T01:26:34.499Z,74.61
2023-07-23T01:29:01.201Z,74.69
2023-07-23T01:31:28.236Z,75.19
2023-07-23T01:33:59.388Z,74.94
2023-07-23T01:36:26.606Z,75.15
2023-07-23T01:38:53.290Z,74.92
2023-07-23T01:41:20.235Z,74.71
2023-07-23T01:43:47.244Z,74.44
2023-07-23T01:46:13.998Z,74.08
2023-07-23T01:48:40.767Z,75.15
2023-07-23T01:51:07.694Z,74.52
2023-07-23T01:53:34.462Z,75.39
2023-07-23T01:56:01.165Z,75.55
2023-07-23T01:58:27.834Z,74.43
2023-07-23T02:01:01.035Z,74.23
2023-07-23T02:03:28.229Z,74.55
2023-07-23T02:05:59.913Z,74.55
2023-07-23T02:08:26.620Z,74.20
2023-07-23T02:11:03.288Z,74.17
2023-07-23T02:13:30.529Z,74.50
2023-07-23T02:15:57.358Z,74.92
2023-07-23T02:18:24.465Z,76.17
2023-07-23T02:20:51.117Z,76.01
2023-07-23T02:23:18.453Z,76.69
2023-07-23T02:25:45.278Z,75.96
2023-07-23T02:28:12.530Z,76.05
2023-07-23T02:30:39.697Z,75.89
2023-07-23T02:33:06.449Z,75.83
2023-07-23T02:35:39.496Z,76.59
2023-07-23T02:38:06.346Z,76.76
2023-07-23T02:40:34.229Z,76.67
2023-07-23T02:43:01.460Z,77.00
2023-07-23T02:45:30.886Z,76.49
2023-07-23T02:48:00.273Z,76.72
2023-07-23T02:50:27.217Z,78.14
2023-07-23T02:52:54.429Z,76.80
2023-07-23T02:55:21.253Z,77.84
2023-07-23T02:57:48.040Z,77.26
2023-07-23T03:00:15.068Z,78.05
2023-07-23T03:02:42.026Z,77.53
2023-07-23T03:05:10.246Z,77.12
2023-07-23T03:07:37.047Z,77.17
2023-07-23T03:10:03.984Z,77.89
2023-07-23T03:12:30.931Z,77.73
2023-07-23T03:14:57.602Z,77.56
2023-07-23T03:17:24.768Z,78.18
2023-07-23T03:19:52.692Z,78.26
2023-07-23T03:22:19.814Z,78.06
2023-07-23T03:24:47.078Z,78.48
2023-07-23T03:27:13.897Z,77.84
2023-07-23T03:29:40.659Z,77.96
2023-07-23T03:32:07.640Z,77.58
2023-07-23T03:34:34.496Z,77.24
2023-07-23T03:37:01.292Z,77.67
2023-07-23T03:39:28.136Z,77.24
2023-07-23T03:41:54.849Z,78.11
2023-07-23T03:44:21.483Z,77.89
2023-07-23T03:47:14.928Z,77.21
2023-07-23T03:49:42.453Z,77.58
2023-07-23T03:52:09.668Z,78.05
2023-07-23T03:54:37.050Z,77.88
2023-07-23T03:57:04.179Z,78.08
2023-07-23T03:59:36.176Z,78.02
2023-07-23T04:02:03.008Z,78.71
2023-07-23T04:04:30.267Z,77.92
2023-07-23T04:06:58.618Z,77.47
2023-07-23T04:09:25.784Z,77.04
2023-07-23T04:11:55.991Z,76.48
2023-07-23T04:14:23.202Z,76.49
2023-07-23T04:16:50.255Z,75.30
2023-07-23T04:19:19.539Z,75.60
2023-07-23T04:21:50.783Z,74.59
2023-07-23T04:24:17.898Z,74.08
2023-07-23T04:26:44.877Z,74.73
2023-07-23T04:29:11.897Z,74.38
2023-07-23T04:31:38.784Z,74.23
2023-07-23T04:34:05.971Z,74.50
2023-07-23T04:36:32.965Z,74.65
2023-07-23T04:39:00.787Z,75.24
2023-07-23T04:41:28.030Z,74.05
2023-07-23T04:43:55.279Z,73.91
2023-07-23T04:46:25.203Z,73.20
2023-07-23T04:48:51.902Z,72.97
2023-07-23T04:51:18.667Z,73.23
2023-07-23T04:53:45.365Z,73.57
2023-07-23T04:56:12.021Z,74.19
2023-07-23T04:58:38.880Z,72.75
2023-07-23T05:01:10.317Z,72.47
2023-07-23T05:03:38.020Z,71.21
2023-07-23T05:06:06.321Z,71.22
2023-07-23T05:08:34.362Z,71.77
2023-07-23T05:11:03.125Z,71.64
2023-07-23T05:13:30.834Z,69.65
2023-07-23T05:16:02.681Z,69.95
2023-07-23T05:18:30.833Z,69.57
2023-07-23T05:20:57.551Z,70.31
2023-07-23T05:23:24.546Z,69.42
2023-07-23T05:25:51.385Z,69.76
2023-07-23T05:28:18.220Z,68.96
2023-07-23T05:30:45.411Z,68.78
2023-07-23T05:33:12.267Z,69.55
2023-07-23T05:35:39.719Z,68.51
2023-07-23T05:38:07.462Z,67.55
2023-07-23T05:40:34.564Z,67.04
2023-07-23T05:43:01.268Z,66.54
2023-07-23T05:45:27.941Z,66.29
2023-07-23T05:47:54.968Z,66.73
2023-07-23T05:50:21.644Z,65.21
2023-07-23T05:52:48.457Z,65.35
2023-07-23T05:55:15.223Z,65.22
2023-07-23T05:57:41.899Z,66.13
2023-07-23T06:00:09.198Z,64.89
2023-07-23T06:02:36.600Z,64.51
2023-07-23T06:05:06.021Z,64.49
2023-07-23T06:07:33.124Z,64.10
2023-07-23T06:09:59.852Z,64.31
2023-07-23T06:12:26.555Z,65.16
2023-07-23T06:14:53.378Z,62.41
2023-07-23T06:17:20.225Z,62.61
2023-07-23T06:19:46.898Z,61.87
2023-07-23T06:22:13.533Z,59.96
2023-07-23T06:24:40.278Z,59.40
2023-07-23T06:27:07.391Z,58.24
2023-07-23T06:29:34.169Z,58.03
2023-07-23T06:32:00.836Z,57.38
2023-07-23T06:34:27.582Z,56.97
2023-07-23T06:36:54.395Z,57.22
2023-07-23T06:39:21.198Z,57.05
2023-07-23T06:41:48.079Z,57.18
2023-07-23T06:44:14.776Z,56.03
2023-07-23T06:46:41.501Z,57.09
2023-07-23T06:49:08.220Z,56.09
2023-07-23T06:51:34.916Z,55.59
2023-07-23T06:54:01.705Z,55.46
2023-07-23T06:56:28.409Z,55.90
2023-07-23T06:58:55.184Z,54.98
2023-07-23T07:01:22.043Z,55.53
2023-07-23T07:03:49.065Z,55.45
2023-07-23T07:06:15.777Z,55.33
2023-07-23T07:08:42.964Z,54.80
2023-07-23T07:11:09.818Z,54.47
2023-07-23T07:13:37.243Z,53.61
2023-07-23T07:16:04.162Z,53.65
2023-07-23T07:18:31.125Z,52.91
2023-07-23T07:21:01.519Z,51.57
2023-07-23T07:23:32.547Z,51.22
2023-07-23T07:25:59.838Z,50.90
2023-07-23T07:28:27.314Z,50.11
2023-07-23T07:30:58.626Z,49.73
2023-07-23T07:33:25.913Z,48.99
2023-07-23T07:36:00.556Z,48.11
2023-07-23T07:38:28.244Z,48.07
2023-07-23T07:40:56.826Z,46.73
2023-07-23T07:43:27.953Z,47.40
2023-07-23T07:45:55.687Z,46.77
2023-07-23T07:48:22.696Z,46.98
2023-07-23T07:51:01.154Z,47.33
2023-07-23T07:53:28.053Z,47.27
2023-07-23T07:55:54.976Z,46.61
2023-07-23T07:58:22.140Z,45.62
2023-07-23T08:00:49.146Z,46.43
2023-07-23T08:03:16.236Z,46.12
2023-07-23T08:05:43.377Z,46.40
2023-07-23T08:08:12.380Z,46.95
2023-07-23T08:10:39.574Z,46.68
2023-07-23T08:13:06.655Z,46.98
2023-07-23T08:15:36.484Z,46.77
2023-07-23T08:18:03.472Z,46.29
2023-07-23T08:20:30.592Z,47.23
2023-07-23T08:22:57.917Z,46.99
2023-07-23T08:25:25.130Z,45.21
2023-07-23T08:27:53.235Z,43.17
2023-07-23T08:30:22.178Z,41.87
2023-07-23T08:32:50.197Z,40.21
2023-07-23T08:35:17.278Z,39.40
2023-07-23T08:37:44.926Z,39.33
2023-07-23T08:40:12.565Z,39.18
2023-07-23T08:42:48.256Z,39.14
2023-07-23T08:45:36.639Z,37.70
2023-07-23T08:48:16.617Z,37.14
2023-07-23T08:50:51.507Z,38.27
2023-07-23T08:53:19.781Z,38.28
2023-07-23T08:55:47.796Z,37.97
2023-07-23T08:58:17.088Z,38.14
2023-07-23T09:00:45.736Z,38.52
2023-07-23T09:03:14.227Z,37.94
2023-07-23T09:05:42.012Z,38.47
2023-07-23T09:08:09.116Z,38.97
2023-07-23T09:10:39.238Z,38.58
2023-07-23T09:13:13.072Z,38.65
2023-07-23T09:15:39.860Z,38.09
2023-07-23T09:18:06.697Z,37.88
2023-07-23T09:20:33.556Z,37.91
2023-07-23T09:23:07.668Z,37.97
2023-07-23T09:25:34.780Z,37.55
2023-07-23T09:28:01.724Z,37.71
2023-07-23T09:30:28.572Z,37.51
2023-07-23T09:32:59.814Z,37.51
2023-07-23T09:35:29.944Z,36.68
2023-07-23T09:38:00.782Z,35.93
2023-07-23T09:40:34.934Z,34.38
2023-07-23T09:43:02.180Z,34.65
2023-07-23T09:45:35.935Z,35.56
2023-07-23T09:48:14.643Z,35.77
2023-07-23T09:50:50.344Z,35.12
2023-07-23T09:53:17.110Z,35.90
2023-07-23T09:55:44.477Z,35.42
2023-07-23T09:58:12.827Z,35.66
2023-07-23T10:00:41.459Z,34.89
2023-07-23T10:03:09.072Z,35.16
2023-07-23T10:05:39.931Z,35.43
2023-07-23T10:08:11.177Z,35.31
2023-07-23T10:10:40.306Z,35.51
2023-07-23T10:13:07.074Z,36.48
2023-07-23T10:15:34.927Z,37.32
2023-07-23T10:18:02.760Z,36.64
2023-07-23T10:20:33.619Z,36.29
2023-07-23T10:23:04.582Z,35.65
2023-07-23T10:25:35.579Z,35.64
2023-07-23T10:28:08.595Z,34.96
2023-07-23T10:30:40.183Z,34.51
2023-07-23T10:33:13.650Z,33.91
2023-07-23T10:35:55.849Z,33.25
2023-07-23T10:38:31.071Z,33.08
2023-07-23T10:40:58.833Z,32.90
2023-07-23T10:43:43.239Z,30.48
2023-07-23T10:46:16.596Z,31.55
2023-07-23T10:48:47.492Z,31.41
2023-07-23T10:51:21.859Z,31.01
2023-07-23T10:54:04.192Z,28.35
2023-07-23T10:56:41.346Z,28.28
2023-07-23T10:59:17.171Z,29.49
2023-07-23T11:01:48.544Z,29.64
2023-07-23T11:04:26.830Z,29.73
2023-07-23T11:06:58.905Z,28.36
2023-07-23T11:09:30.743Z,28.35
2023-07-23T11:11:58.259Z,29.35
2023-07-23T11:14:29.633Z,28.65
2023-07-23T11:17:01.526Z,29.24
2023-07-23T11:19:37.482Z,29.00
2023-07-23T11:22:06.083Z,29.19
2023-07-23T11:24:33.708Z,30.08
2023-07-23T11:27:03.698Z,29.66
2023-07-23T11:29:34.609Z,30.48
2023-07-23T11:32:03.052Z,30.66
2023-07-23T11:34:30.274Z,30.85
2023-07-23T11:36:57.301Z,31.91
2023-07-23T11:39:24.979Z,31.71
2023-07-23T11:41:57.665Z,31.97
2023-07-23T11:44:24.385Z,32.59
2023-07-23T11:46:59.777Z,32.77
2023-07-23T11:49:26.558Z,33.26
2023-07-23T11:51:59.089Z,32.67
2023-07-23T11:54:28.252Z,32.78
2023-07-23T11:56:55.162Z,32.38
2023-07-23T11:59:24.070Z,31.70
2023-07-23T12:01:55.780Z,31.48
2023-07-23T12:04:22.658Z,32.11
2023-07-23T12:06:49.590Z,32.03
2023-07-23T12:09:16.353Z,32.18
2023-07-23T12:11:43.992Z,32.47
2023-07-23T12:14:17.967Z,31.75
2023-07-23T12:16:46.895Z,31.51
2023-07-23T12:19:21.504Z,31.41
2023-07-23T12:21:53.589Z,31.83
2023-07-23T12:24:22.920Z,31.58
2023-07-23T12:26:58.045Z,31.48
2023-07-23T12:29:35.186Z,30.94
2023-07-23T12:32:13.494Z,30.87
2023-07-23T12:34:42.913Z,31.78
2023-07-23T12:37:10.158Z,31.75
2023-07-23T12:39:39.967Z,31.91
2023-07-23T12:42:09.266Z,31.96
2023-07-23T12:44:36.240Z,31.94
2023-07-23T12:47:03.240Z,32.21
2023-07-23T12:49:31.188Z,31.41
2023-07-23T12:51:58.269Z,32.23
2023-07-23T12:54:25.050Z,32.28
2023-07-23T12:56:52.100Z,32.86
2023-07-23T12:59:21.939Z,32.40
2023-07-23T13:01:51.306Z,32.32
2023-07-23T13:04:17.973Z,32.15
2023-07-23T13:06:45.026Z,32.83
2023-07-23T13:09:12.392Z,31.70
2023-07-23T13:11:40.905Z,31.29
2023-07-23T13:14:07.831Z,31.33
2023-07-23T13:16:37.542Z,32.16
2023-07-23T13:19:04.959Z,31.68
2023-07-23T13:21:33.001Z,30.81
2023-07-23T13:24:00.077Z,31.69
2023-07-23T13:26:27.749Z,30.89
2023-07-23T13:28:54.879Z,30.92
2023-07-23T13:31:21.626Z,31.75
2023-07-23T13:33:48.590Z,30.91
2023-07-23T13:36:15.361Z,31.00
2023-07-23T13:38:42.106Z,31.94
2023-07-23T13:41:08.953Z,31.47
2023-07-23T13:43:37.019Z,31.96
2023-07-23T13:46:03.766Z,31.31
2023-07-23T13:48:30.656Z,31.50
2023-07-23T13:50:57.357Z,31.72
2023-07-23T13:53:24.131Z,31.17
2023-07-23T13:55:50.889Z,31.90
2023-07-23T13:58:17.587Z,31.83
2023-07-23T14:00:44.547Z,31.14
2023-07-23T14:03:11.620Z,31.08
2023-07-23T14:05:38.448Z,31.00
2023-07-23T14:08:05.694Z,31.49
2023-07-23T14:10:32.403Z,31.79
2023-07-23T14:12:59.105Z,31.41
2023-07-23T14:15:25.934Z,31.47
2023-07-23T14:17:53.490Z,30.97
2023-07-23T14:20:20.327Z,30.73
2023-07-23T14:22:47.089Z,31.17
2023-07-23T14:25:13.819Z,30.96
2023-07-23T14:27:40.755Z,31.20
2023-07-23T14:30:08.228Z,30.93
2023-07-23T14:32:37.468Z,30.52
2023-07-23T14:35:04.608Z,30.66
2023-07-23T14:37:31.259Z,30.67
2023-07-23T14:39:58.067Z,30.00
2023-07-23T14:42:24.869Z,30.75
2023-07-23T14:44:51.540Z,30.41
2023-07-23T14:47:18.409Z,30.49
2023-07-23T14:49:45.558Z,31.02
2023-07-23T14:52:12.390Z,30.69
2023-07-23T14:54:39.027Z,30.77
2023-07-23T14:57:06.386Z,29.96
2023-07-23T14:59:33.303Z,30.53
2023-07-23T15:02:01.767Z,30.32
2023-07-23T15:04:28.707Z,30.90
2023-07-23T15:06:55.573Z,30.98
2023-07-23T15:09:22.488Z,30.95
2023-07-23T15:11:49.838Z,30.53
2023-07-23T15:14:16.983Z,31.99
2023-07-23T15:16:43.863Z,31.37
2023-07-23T15:19:10.839Z,31.12
2023-07-23T15:21:38.096Z,31.64
2023-07-23T15:24:05.654Z,32.83
2023-07-23T15:26:33.902Z,31.88
2023-07-23T15:29:02.845Z,32.01
2023-07-23T15:31:36.813Z,30.97
2023-07-23T15:34:03.706Z,32.08
2023-07-23T15:36:30.598Z,31.79
2023-07-23T15:38:57.255Z,32.14
2023-07-23T15:41:23.998Z,31.60
2023-07-23T15:43:50.821Z,31.90
2023-07-23T15:46:17.703Z,32.57
2023-07-23T15:48:44.789Z,32.73
2023-07-23T15:51:11.605Z,31.73
2023-07-23T15:53:38.287Z,31.71
2023-07-23T15:56:05.425Z,30.76
2023-07-23T15:58:32.424Z,30.61
2023-07-23T16:00:59.564Z,30.50
2023-07-23T16:03:26.411Z,30.90
2023-07-23T16:05:55.657Z,30.33
2023-07-23T16:08:22.360Z,30.73
2023-07-23T16:10:49.129Z,31.66
2023-07-23T16:13:18.893Z,31.80
2023-07-23T16:15:45.837Z,31.37
2023-07-23T16:18:12.724Z,30.47
2023-07-23T16:20:39.678Z,30.93
2023-07-23T16:23:06.408Z,30.59
2023-07-23T16:25:33.144Z,30.89
2023-07-23T16:27:59.908Z,30.89
2023-07-23T16:30:27.253Z,31.09
2023-07-23T16:32:54.491Z,30.66
2023-07-23T16:35:21.679Z,30.42
2023-07-23T16:37:50.600Z,31.11
2023-07-23T16:40:18.527Z,30.98
2023-07-23T16:42:46.672Z,31.34
2023-07-23T16:45:15.436Z,30.86
2023-07-23T16:47:42.813Z,30.84
2023-07-23T16:50:10.293Z,30.78
2023-07-23T16:52:37.260Z,31.59
2023-07-23T16:55:04.153Z,30.89
2023-07-23T16:57:31.375Z,31.70
2023-07-23T16:59:58.261Z,31.06
2023-07-23T17:02:25.104Z,30.87
2023-07-23T17:04:51.955Z,32.09
2023-07-23T17:07:18.738Z,30.79
2023-07-23T17:09:45.498Z,31.57
2023-07-23T17:12:12.367Z,32.53
2023-07-23T17:14:39.159Z,32.62
2023-07-23T17:17:06.076Z,32.69
2023-07-23T17:19:32.831Z,33.66
2023-07-23T17:21:59.636Z,33.99
2023-07-23T17:24:26.916Z,35.06
2023-07-23T17:26:53.614Z,34.63
2023-07-23T17:29:20.349Z,35.21
2023-07-23T17:31:47.619Z,36.06
2023-07-23T17:34:14.437Z,36.50
2023-07-23T17:36:41.272Z,37.18
2023-07-23T17:39:18.288Z,37.33
2023-07-23T17:41:45.185Z,37.64
2023-07-23T17:44:11.892Z,38.22
2023-07-23T17:46:41.752Z,38.28
2023-07-23T17:49:08.488Z,38.55
2023-07-23T17:51:35.316Z,38.57
2023-07-23T17:54:02.302Z,38.83
2023-07-23T17:56:29.333Z,38.94
2023-07-23T17:58:56.210Z,39.15
2023-07-23T18:01:30.773Z,39.16
2023-07-23T18:03:59.145Z,39.32
2023-07-23T18:06:25.909Z,39.72
2023-07-23T18:08:52.693Z,39.77
2023-07-23T18:11:19.374Z,39.60
2023-07-23T18:13:46.048Z,39.98
2023-07-23T18:16:12.842Z,40.02
2023-07-23T18:18:39.530Z,40.14
2023-07-23T18:21:06.245Z,40.10
2023-07-23T18:23:34.137Z,40.37
2023-07-23T18:26:07.067Z,40.95
2023-07-23T18:28:34.481Z,40.94
2023-07-23T18:31:02.738Z,40.93
2023-07-23T18:33:30.146Z,41.22
2023-07-23T18:35:57.042Z,41.21
2023-07-23T18:38:24.195Z,41.96
2023-07-23T18:40:57.693Z,42.04
2023-07-23T18:43:24.797Z,41.87
2023-07-23T18:45:52.525Z,42.78
2023-07-23T18:48:19.424Z,42.90
2023-07-23T18:50:46.396Z,43.17
2023-07-23T18:53:13.146Z,43.08
2023-07-23T18:55:39.846Z,43.31
2023-07-23T18:58:06.592Z,43.46
2023-07-23T19:00:36.317Z,43.39
2023-07-23T19:03:04.549Z,44.03
2023-07-23T19:05:31.424Z,43.60
2023-07-23T19:07:58.344Z,43.59
2023-07-23T19:10:25.275Z,44.08
2023-07-23T19:12:52.049Z,44.03
2023-07-23T19:15:18.910Z,44.07
2023-07-23T19:17:45.750Z,44.61
2023-07-23T19:20:12.532Z,44.44
2023-07-23T19:22:39.254Z,44.43
2023-07-23T19:25:06.226Z,44.39
2023-07-23T19:27:33.196Z,45.04
2023-07-23T19:29:59.963Z,44.63
2023-07-23T19:32:26.703Z,45.05
2023-07-23T19:34:53.569Z,44.55
2023-07-23T19:37:20.582Z,44.86
2023-07-23T19:39:47.305Z,45.07
2023-07-23T19:42:14.763Z,44.97
2023-07-23T19:44:41.497Z,44.39
2023-07-23T19:47:11.614Z,44.69
2023-07-23T19:49:38.348Z,45.00
2023-07-23T19:52:05.539Z,45.04
2023-07-23T19:54:32.208Z,45.02
2023-07-23T19:56:59.056Z,44.86
2023-07-23T19:59:26.232Z,45.17
2023-07-23T20:01:53.636Z,45.79
2023-07-23T20:04:23.626Z,45.41
2023-07-23T20:06:50.547Z,46.65
2023-07-23T20:09:17.263Z,45.89
2023-07-23T20:11:44.197Z,46.50
2023-07-23T20:14:10.867Z,46.75
2023-07-23T20:16:37.621Z,47.13
2023-07-23T20:19:04.474Z,46.98
2023-07-23T20:21:42.414Z,47.37
2023-07-23T20:24:14.752Z,47.85
2023-07-23T20:26:41.801Z,48.28
2023-07-23T20:29:08.928Z,47.92
2023-07-23T20:31:36.186Z,47.87
2023-07-23T20:34:03.069Z,48.68
2023-07-23T20:36:30.380Z,48.51
2023-07-23T20:38:57.511Z,48.90
2023-07-23T20:41:24.547Z,48.75
2023-07-23T20:43:58.640Z,49.55
2023-07-23T20:46:28.359Z,49.06
2023-07-23T20:48:57.940Z,49.68
2023-07-23T20:51:24.909Z,50.60
2023-07-23T20:53:51.809Z,50.23
2023-07-23T20:56:22.282Z,50.25
2023-07-23T20:58:48.933Z,50.86
2023-07-23T21:01:15.781Z,50.64
2023-07-23T21:03:42.530Z,51.10
2023-07-23T21:06:09.350Z,51.64
2023-07-23T21:08:36.086Z,51.88
2023-07-23T21:11:02.857Z,51.85
2023-07-23T21:13:29.815Z,51.73
2023-07-23T21:15:56.711Z,51.26
2023-07-23T21:18:23.835Z,51.92
2023-07-23T21:20:50.851Z,51.94
2023-07-23T21:23:18.274Z,51.88
2023-07-23T21:25:45.913Z,52.09
2023-07-23T21:28:12.710Z,52.44
2023-07-23T21:30:39.605Z,52.56
2023-07-23T21:33:06.433Z,52.58
2023-07-23T21:35:43.912Z,53.88
2023-07-23T21:38:11.485Z,53.31
2023-07-23T21:40:38.181Z,53.70
2023-07-23T21:43:05.312Z,53.32
2023-07-23T21:45:32.030Z,53.61
2023-07-23T21:48:00.754Z,53.94
2023-07-23T21:50:27.588Z,53.92
2023-07-23T21:52:54.366Z,53.81
2023-07-23T21:55:21.412Z,54.10
2023-07-23T21:57:48.254Z,54.04
2023-07-23T22:00:15.167Z,54.04
2023-07-23T22:02:42.172Z,54.55
2023-07-23T22:05:09.498Z,54.39
2023-07-23T22:07:36.292Z,54.26
2023-07-23T22:10:03.000Z,54.47
2023-07-23T22:12:29.827Z,55.08
2023-07-23T22:14:56.762Z,55.05
2023-07-23T22:17:23.563Z,55.66
2023-07-23T22:19:50.265Z,55.94
2023-07-23T22:22:17.046Z,56.09
2023-07-23T22:24:43.874Z,55.97
2023-07-23T22:27:10.664Z,56.66
2023-07-23T22:29:37.403Z,56.55
2023-07-23T22:32:04.717Z,57.62
2023-07-23T22:34:31.537Z,57.96
2023-07-23T22:36:58.478Z,58.71
2023-07-23T22:39:25.275Z,59.07
2023-07-23T22:41:52.336Z,58.65
2023-07-23T22:44:19.258Z,58.66
2023-07-23T22:46:46.135Z,58.71
2023-07-23T22:49:23.115Z,59.13
2023-07-23T22:51:49.955Z,59.32
2023-07-23T22:54:16.771Z,59.65
2023-07-23T22:56:43.555Z,59.59
2023-07-23T22:59:10.363Z,60.01
2023-07-23T23:01:37.103Z,60.11
2023-07-23T23:04:04.050Z,60.62
2023-07-23T23:06:30.959Z,60.81
2023-07-23T23:08:58.458Z,61.02
2023-07-23T23:11:25.559Z,60.62
2023-07-23T23:13:52.362Z,60.97
2023-07-23T23:16:19.188Z,61.30
2023-07-23T23:18:45.895Z,61.77
2023-07-23T23:21:12.664Z,61.78
2023-07-23T23:23:39.382Z,62.15
2023-07-23T23:26:06.179Z,62.05
2023-07-23T23:28:33.031Z,62.73
2023-07-23T23:30:59.756Z,62.41
2023-07-23T23:33:26.560Z,62.33
2023-07-23T23:35:57.168Z,62.54
2023-07-23T23:38:24.999Z,62.92
2023-07-23T23:40:51.949Z,62.93
2023-07-23T23:43:18.718Z,63.25
2023-07-23T23:45:45.398Z,63.90
2023-07-23T23:48:12.421Z,63.29
2023-07-23T23:50:39.097Z,63.45
2023-07-23T23:53:05.774Z,63.60
2023-07-23T23:55:32.408Z,64.16
2023-07-23T23:57:59.301Z,63.92
